sensor_id;sensor_type;location;lat;lon;timestamp;P1;durP1;ratioP1;P2;durP2;ratioP2
46054;SDS011;31788;6.954;-71.872;2023-05-10T00:01:18;2.70;;;0.90;;
46054;SDS011;31788;6.954;-71.872;2023-05-10T00:03:44;1.45;;;0.90;;
46054;SDS011;31788;6.954;-71.872;2023-05-10T00:06:11;1.40;;;0.82;;
46054;SDS011;31788;6.954;-71.872;2023-05-10T00:08:38;2.27;;;1.23;;
46054;SDS011;31788;6.954;-71.872;2023-05-10T00:11:04;2.58;;;1.45;;
46054;SDS011;31788;6.954;-71.872;2023-05-10T00:13:31;4.55;;;2.55;;
46054;SDS011;31788;6.954;-71.872;2023-05-10T00:15:58;4.72;;;2.78;;
46054;SDS011;31788;6.954;-71.872;2023-05-10T00:18:26;4.65;;;2.58;;
46054;SDS011;31788;6.954;-71.872;2023-05-10T00:20:52;4.53;;;2.50;;
46054;SDS011;31788;6.954;-71.872;2023-05-10T00:23:19;3.55;;;2.30;;
46054;SDS011;31788;6.954;-71.872;2023-05-10T00:25:45;5.72;;;2.45;;
46054;SDS011;31788;6.954;-71.872;2023-05-10T00:28:12;5.63;;;2.00;;
46054;SDS011;31788;6.954;-71.872;2023-05-10T00:30:39;3.00;;;1.90;;
46054;SDS011;31788;6.954;-71.872;2023-05-10T00:33:05;4.85;;;2.30;;
46054;SDS011;31788;6.954;-71.872;2023-05-10T00:35:32;3.50;;;2.42;;
46054;SDS011;31788;6.954;-71.872;2023-05-10T00:37:59;4.72;;;2.60;;
46054;SDS011;31788;6.954;-71.872;2023-05-10T00:40:25;4.20;;;2.80;;
46054;SDS011;31788;6.954;-71.872;2023-05-10T00:42:52;3.50;;;2.38;;
46054;SDS011;31788;6.954;-71.872;2023-05-10T00:45:19;4.10;;;2.30;;
46054;SDS011;31788;6.954;-71.872;2023-05-10T00:47:45;2.78;;;1.60;;
46054;SDS011;31788;6.954;-71.872;2023-05-10T00:50:12;2.70;;;1.20;;
46054;SDS011;31788;6.954;-71.872;2023-05-10T00:52:40;3.10;;;1.30;;
46054;SDS011;31788;6.954;-71.872;2023-05-10T00:55:09;3.20;;;1.20;;
46054;SDS011;31788;6.954;-71.872;2023-05-10T00:57:37;3.83;;;1.10;;
46054;SDS011;31788;6.954;-71.872;2023-05-10T01:00:04;2.78;;;0.93;;
46054;SDS011;31788;6.954;-71.872;2023-05-10T01:02:32;2.75;;;0.90;;
46054;SDS011;31788;6.954;-71.872;2023-05-10T01:05:01;2.70;;;0.80;;
46054;SDS011;31788;6.954;-71.872;2023-05-10T01:07:31;1.80;;;0.80;;
46054;SDS011;31788;6.954;-71.872;2023-05-10T01:09:58;2.85;;;0.95;;
46054;SDS011;31788;6.954;-71.872;2023-05-10T01:12:25;3.20;;;1.10;;
46054;SDS011;31788;6.954;-71.872;2023-05-10T01:14:52;2.28;;;0.88;;
46054;SDS011;31788;6.954;-71.872;2023-05-10T01:17:20;3.63;;;1.30;;
46054;SDS011;31788;6.954;-71.872;2023-05-10T01:19:48;3.83;;;1.52;;
46054;SDS011;31788;6.954;-71.872;2023-05-10T01:24:57;2.35;;;1.10;;
46054;SDS011;31788;6.954;-71.872;2023-05-10T01:31:02;4.97;;;1.20;;
46054;SDS011;31788;6.954;-71.872;2023-05-10T01:33:46;4.78;;;1.50;;
46054;SDS011;31788;6.954;-71.872;2023-05-10T01:38:58;15.07;;;10.88;;
46054;SDS011;31788;6.954;-71.872;2023-05-10T01:41:40;9.07;;;6.05;;
46054;SDS011;31788;6.954;-71.872;2023-05-10T01:47:06;4.97;;;3.13;;
46054;SDS011;31788;6.954;-71.872;2023-05-10T01:49:59;6.43;;;3.05;;
46054;SDS011;31788;6.954;-71.872;2023-05-10T01:52:29;5.50;;;3.33;;
46054;SDS011;31788;6.954;-71.872;2023-05-10T01:55:02;2.75;;;2.00;;
46054;SDS011;31788;6.954;-71.872;2023-05-10T01:57:34;3.03;;;1.80;;
46054;SDS011;31788;6.954;-71.872;2023-05-10T02:00:03;5.28;;;1.88;;
46054;SDS011;31788;6.954;-71.872;2023-05-10T02:02:30;3.58;;;1.58;;
46054;SDS011;31788;6.954;-71.872;2023-05-10T02:05:02;4.95;;;1.90;;
46054;SDS011;31788;6.954;-71.872;2023-05-10T02:07:36;4.78;;;2.03;;
46054;SDS011;31788;6.954;-71.872;2023-05-10T02:10:07;2.95;;;1.55;;
46054;SDS011;31788;6.954;-71.872;2023-05-10T02:12:36;3.33;;;1.77;;
46054;SDS011;31788;6.954;-71.872;2023-05-10T02:15:08;3.42;;;1.60;;
46054;SDS011;31788;6.954;-71.872;2023-05-10T02:17:37;4.72;;;1.92;;
46054;SDS011;31788;6.954;-71.872;2023-05-10T02:20:05;6.32;;;1.90;;
46054;SDS011;31788;6.954;-71.872;2023-05-10T02:22:33;2.93;;;1.60;;
46054;SDS011;31788;6.954;-71.872;2023-05-10T02:25:01;4.73;;;1.93;;
46054;SDS011;31788;6.954;-71.872;2023-05-10T02:27:29;3.25;;;1.70;;
46054;SDS011;31788;6.954;-71.872;2023-05-10T02:29:56;4.32;;;1.60;;
46054;SDS011;31788;6.954;-71.872;2023-05-10T02:32:23;3.40;;;1.50;;
46054;SDS011;31788;6.954;-71.872;2023-05-10T02:34:52;5.20;;;1.20;;
46054;SDS011;31788;6.954;-71.872;2023-05-10T02:37:20;2.72;;;1.10;;
46054;SDS011;31788;6.954;-71.872;2023-05-10T02:39:49;3.05;;;1.20;;
46054;SDS011;31788;6.954;-71.872;2023-05-10T02:42:18;2.97;;;1.30;;
46054;SDS011;31788;6.954;-71.872;2023-05-10T02:44:50;1.92;;;1.00;;
46054;SDS011;31788;6.954;-71.872;2023-05-10T02:47:19;2.67;;;0.85;;
46054;SDS011;31788;6.954;-71.872;2023-05-10T02:49:46;2.88;;;1.10;;
46054;SDS011;31788;6.954;-71.872;2023-05-10T02:52:15;1.73;;;0.80;;
46054;SDS011;31788;6.954;-71.872;2023-05-10T02:54:54;3.80;;;0.70;;
46054;SDS011;31788;6.954;-71.872;2023-05-10T02:57:25;2.05;;;0.80;;
46054;SDS011;31788;6.954;-71.872;2023-05-10T02:59:54;2.40;;;0.80;;
46054;SDS011;31788;6.954;-71.872;2023-05-10T03:02:21;2.55;;;0.80;;
46054;SDS011;31788;6.954;-71.872;2023-05-10T03:04:47;1.80;;;0.50;;
46054;SDS011;31788;6.954;-71.872;2023-05-10T03:07:15;2.90;;;0.60;;
46054;SDS011;31788;6.954;-71.872;2023-05-10T03:09:44;2.03;;;0.60;;
46054;SDS011;31788;6.954;-71.872;2023-05-10T03:14:57;4.85;;;0.57;;
46054;SDS011;31788;6.954;-71.872;2023-05-10T03:20:08;1.80;;;0.93;;
46054;SDS011;31788;6.954;-71.872;2023-05-10T03:22:37;2.03;;;0.57;;
46054;SDS011;31788;6.954;-71.872;2023-05-10T03:25:08;2.38;;;0.70;;
46054;SDS011;31788;6.954;-71.872;2023-05-10T03:27:38;3.35;;;0.50;;
46054;SDS011;31788;6.954;-71.872;2023-05-10T03:30:07;3.27;;;0.80;;
46054;SDS011;31788;6.954;-71.872;2023-05-10T03:32:36;1.88;;;0.50;;
46054;SDS011;31788;6.954;-71.872;2023-05-10T03:35:06;1.17;;;0.55;;
46054;SDS011;31788;6.954;-71.872;2023-05-10T03:37:38;2.70;;;0.85;;
46054;SDS011;31788;6.954;-71.872;2023-05-10T03:40:05;1.58;;;0.45;;
46054;SDS011;31788;6.954;-71.872;2023-05-10T03:42:32;1.40;;;0.50;;
46054;SDS011;31788;6.954;-71.872;2023-05-10T03:44:59;1.45;;;0.57;;
46054;SDS011;31788;6.954;-71.872;2023-05-10T03:47:26;1.83;;;0.50;;
46054;SDS011;31788;6.954;-71.872;2023-05-10T03:49:52;2.30;;;0.50;;
46054;SDS011;31788;6.954;-71.872;2023-05-10T03:52:20;2.78;;;0.50;;
46054;SDS011;31788;6.954;-71.872;2023-05-10T03:54:47;2.00;;;0.60;;
46054;SDS011;31788;6.954;-71.872;2023-05-10T03:57:13;2.20;;;0.50;;
46054;SDS011;31788;6.954;-71.872;2023-05-10T03:59:40;1.55;;;0.70;;
46054;SDS011;31788;6.954;-71.872;2023-05-10T04:02:07;1.85;;;0.80;;
46054;SDS011;31788;6.954;-71.872;2023-05-10T04:04:33;4.90;;;0.85;;
46054;SDS011;31788;6.954;-71.872;2023-05-10T04:07:00;1.10;;;0.40;;
46054;SDS011;31788;6.954;-71.872;2023-05-10T04:09:26;2.85;;;0.63;;
46054;SDS011;31788;6.954;-71.872;2023-05-10T04:11:53;2.30;;;0.63;;
46054;SDS011;31788;6.954;-71.872;2023-05-10T04:14:20;4.18;;;1.20;;
46054;SDS011;31788;6.954;-71.872;2023-05-10T04:16:47;3.57;;;0.70;;
46054;SDS011;31788;6.954;-71.872;2023-05-10T04:19:13;2.15;;;0.75;;
46054;SDS011;31788;6.954;-71.872;2023-05-10T04:21:40;2.60;;;0.50;;
46054;SDS011;31788;6.954;-71.872;2023-05-10T04:24:06;3.53;;;0.60;;
46054;SDS011;31788;6.954;-71.872;2023-05-10T04:26:33;4.80;;;0.60;;
46054;SDS011;31788;6.954;-71.872;2023-05-10T04:29:00;1.55;;;0.60;;
46054;SDS011;31788;6.954;-71.872;2023-05-10T04:31:27;2.53;;;0.70;;
46054;SDS011;31788;6.954;-71.872;2023-05-10T04:33:54;2.88;;;0.55;;
46054;SDS011;31788;6.954;-71.872;2023-05-10T04:36:21;1.48;;;0.55;;
46054;SDS011;31788;6.954;-71.872;2023-05-10T04:38:47;1.83;;;0.40;;
46054;SDS011;31788;6.954;-71.872;2023-05-10T04:41:14;2.87;;;0.70;;
46054;SDS011;31788;6.954;-71.872;2023-05-10T04:43:41;2.13;;;0.60;;
46054;SDS011;31788;6.954;-71.872;2023-05-10T04:46:07;1.58;;;0.60;;
46054;SDS011;31788;6.954;-71.872;2023-05-10T04:48:34;1.38;;;0.60;;
46054;SDS011;31788;6.954;-71.872;2023-05-10T04:51:00;2.88;;;0.60;;
46054;SDS011;31788;6.954;-71.872;2023-05-10T04:53:29;0.93;;;0.40;;
46054;SDS011;31788;6.954;-71.872;2023-05-10T04:55:55;2.47;;;0.50;;
46054;SDS011;31788;6.954;-71.872;2023-05-10T04:58:22;4.63;;;0.50;;
46054;SDS011;31788;6.954;-71.872;2023-05-10T05:00:49;1.98;;;0.63;;
46054;SDS011;31788;6.954;-71.872;2023-05-10T05:03:15;1.60;;;0.60;;
46054;SDS011;31788;6.954;-71.872;2023-05-10T05:05:43;3.20;;;0.82;;
46054;SDS011;31788;6.954;-71.872;2023-05-10T05:08:10;1.92;;;0.60;;
46054;SDS011;31788;6.954;-71.872;2023-05-10T05:10:37;2.63;;;0.52;;
46054;SDS011;31788;6.954;-71.872;2023-05-10T05:13:03;1.63;;;0.60;;
46054;SDS011;31788;6.954;-71.872;2023-05-10T05:15:30;3.40;;;0.50;;
46054;SDS011;31788;6.954;-71.872;2023-05-10T05:17:57;4.10;;;1.10;;
46054;SDS011;31788;6.954;-71.872;2023-05-10T05:20:24;4.03;;;0.60;;
46054;SDS011;31788;6.954;-71.872;2023-05-10T05:22:50;1.23;;;0.55;;
46054;SDS011;31788;6.954;-71.872;2023-05-10T05:25:17;2.13;;;0.65;;
46054;SDS011;31788;6.954;-71.872;2023-05-10T05:27:43;1.45;;;0.47;;
46054;SDS011;31788;6.954;-71.872;2023-05-10T05:30:10;4.10;;;0.70;;
46054;SDS011;31788;6.954;-71.872;2023-05-10T05:32:37;1.35;;;0.50;;
46054;SDS011;31788;6.954;-71.872;2023-05-10T05:35:04;1.33;;;0.40;;
46054;SDS011;31788;6.954;-71.872;2023-05-10T05:37:31;2.47;;;0.60;;
46054;SDS011;31788;6.954;-71.872;2023-05-10T05:39:58;1.83;;;0.50;;
46054;SDS011;31788;6.954;-71.872;2023-05-10T05:42:26;3.72;;;0.60;;
46054;SDS011;31788;6.954;-71.872;2023-05-10T05:44:53;3.20;;;0.63;;
46054;SDS011;31788;6.954;-71.872;2023-05-10T05:47:19;1.60;;;0.57;;
46054;SDS011;31788;6.954;-71.872;2023-05-10T05:49:46;3.22;;;0.70;;
46054;SDS011;31788;6.954;-71.872;2023-05-10T05:52:13;4.30;;;0.57;;
46054;SDS011;31788;6.954;-71.872;2023-05-10T05:54:39;2.28;;;0.80;;
46054;SDS011;31788;6.954;-71.872;2023-05-10T05:57:06;1.38;;;0.50;;
46054;SDS011;31788;6.954;-71.872;2023-05-10T05:59:32;4.63;;;0.50;;
46054;SDS011;31788;6.954;-71.872;2023-05-10T06:01:59;3.80;;;0.60;;
46054;SDS011;31788;6.954;-71.872;2023-05-10T06:04:26;2.42;;;0.60;;
46054;SDS011;31788;6.954;-71.872;2023-05-10T06:06:52;1.33;;;0.40;;
46054;SDS011;31788;6.954;-71.872;2023-05-10T06:09:19;3.70;;;0.52;;
46054;SDS011;31788;6.954;-71.872;2023-05-10T06:11:45;2.87;;;0.50;;
46054;SDS011;31788;6.954;-71.872;2023-05-10T06:14:12;1.75;;;0.45;;
46054;SDS011;31788;6.954;-71.872;2023-05-10T06:16:39;1.90;;;0.40;;
46054;SDS011;31788;6.954;-71.872;2023-05-10T06:19:06;1.20;;;0.40;;
46054;SDS011;31788;6.954;-71.872;2023-05-10T06:21:33;1.10;;;0.32;;
46054;SDS011;31788;6.954;-71.872;2023-05-10T06:24:00;1.87;;;0.50;;
46054;SDS011;31788;6.954;-71.872;2023-05-10T06:26:27;2.60;;;0.80;;
46054;SDS011;31788;6.954;-71.872;2023-05-10T06:28:54;3.83;;;0.40;;
46054;SDS011;31788;6.954;-71.872;2023-05-10T06:31:21;2.78;;;0.45;;
46054;SDS011;31788;6.954;-71.872;2023-05-10T06:33:47;2.37;;;0.50;;
46054;SDS011;31788;6.954;-71.872;2023-05-10T06:36:14;2.13;;;0.50;;
46054;SDS011;31788;6.954;-71.872;2023-05-10T06:38:41;1.10;;;0.40;;
46054;SDS011;31788;6.954;-71.872;2023-05-10T06:41:07;1.73;;;0.60;;
46054;SDS011;31788;6.954;-71.872;2023-05-10T06:43:34;1.50;;;0.50;;
46054;SDS011;31788;6.954;-71.872;2023-05-10T06:46:02;2.10;;;0.50;;
46054;SDS011;31788;6.954;-71.872;2023-05-10T06:48:28;2.65;;;0.80;;
46054;SDS011;31788;6.954;-71.872;2023-05-10T06:50:55;1.53;;;0.50;;
46054;SDS011;31788;6.954;-71.872;2023-05-10T06:53:22;1.90;;;0.50;;
46054;SDS011;31788;6.954;-71.872;2023-05-10T06:55:49;1.30;;;0.43;;
46054;SDS011;31788;6.954;-71.872;2023-05-10T06:58:15;2.20;;;0.43;;
46054;SDS011;31788;6.954;-71.872;2023-05-10T07:00:42;1.37;;;0.60;;
46054;SDS011;31788;6.954;-71.872;2023-05-10T07:03:10;1.60;;;0.43;;
46054;SDS011;31788;6.954;-71.872;2023-05-10T07:05:37;2.30;;;0.60;;
46054;SDS011;31788;6.954;-71.872;2023-05-10T07:08:03;1.90;;;0.50;;
46054;SDS011;31788;6.954;-71.872;2023-05-10T07:10:30;2.47;;;0.80;;
46054;SDS011;31788;6.954;-71.872;2023-05-10T07:12:57;2.38;;;0.63;;
46054;SDS011;31788;6.954;-71.872;2023-05-10T07:15:23;1.70;;;0.60;;
46054;SDS011;31788;6.954;-71.872;2023-05-10T07:17:50;4.00;;;0.75;;
46054;SDS011;31788;6.954;-71.872;2023-05-10T07:20:17;4.30;;;0.60;;
46054;SDS011;31788;6.954;-71.872;2023-05-10T07:22:44;3.70;;;0.80;;
46054;SDS011;31788;6.954;-71.872;2023-05-10T07:25:10;2.55;;;0.60;;
46054;SDS011;31788;6.954;-71.872;2023-05-10T07:27:37;3.05;;;0.70;;
46054;SDS011;31788;6.954;-71.872;2023-05-10T07:30:03;1.70;;;0.50;;
46054;SDS011;31788;6.954;-71.872;2023-05-10T07:32:31;5.20;;;1.02;;
46054;SDS011;31788;6.954;-71.872;2023-05-10T07:34:57;1.15;;;0.60;;
46054;SDS011;31788;6.954;-71.872;2023-05-10T07:37:24;3.15;;;0.60;;
46054;SDS011;31788;6.954;-71.872;2023-05-10T07:39:50;3.25;;;0.60;;
46054;SDS011;31788;6.954;-71.872;2023-05-10T07:42:17;4.63;;;0.60;;
46054;SDS011;31788;6.954;-71.872;2023-05-10T07:44:44;1.97;;;0.60;;
46054;SDS011;31788;6.954;-71.872;2023-05-10T07:47:10;2.53;;;0.63;;
46054;SDS011;31788;6.954;-71.872;2023-05-10T07:49:37;4.22;;;0.68;;
46054;SDS011;31788;6.954;-71.872;2023-05-10T07:52:03;2.58;;;0.90;;
46054;SDS011;31788;6.954;-71.872;2023-05-10T07:54:30;5.10;;;0.70;;
46054;SDS011;31788;6.954;-71.872;2023-05-10T07:56:57;2.80;;;0.80;;
46054;SDS011;31788;6.954;-71.872;2023-05-10T07:59:25;1.70;;;0.60;;
46054;SDS011;31788;6.954;-71.872;2023-05-10T08:01:51;3.90;;;0.53;;
46054;SDS011;31788;6.954;-71.872;2023-05-10T08:04:18;3.67;;;0.80;;
46054;SDS011;31788;6.954;-71.872;2023-05-10T08:06:44;6.18;;;0.73;;
46054;SDS011;31788;6.954;-71.872;2023-05-10T08:09:11;3.67;;;0.80;;
46054;SDS011;31788;6.954;-71.872;2023-05-10T08:11:37;2.78;;;0.82;;
46054;SDS011;31788;6.954;-71.872;2023-05-10T08:14:04;2.47;;;0.73;;
46054;SDS011;31788;6.954;-71.872;2023-05-10T08:16:31;3.35;;;0.68;;
46054;SDS011;31788;6.954;-71.872;2023-05-10T08:18:57;3.47;;;0.70;;
46054;SDS011;31788;6.954;-71.872;2023-05-10T08:21:24;4.10;;;0.70;;
46054;SDS011;31788;6.954;-71.872;2023-05-10T08:23:51;3.33;;;0.70;;
46054;SDS011;31788;6.954;-71.872;2023-05-10T08:26:18;2.25;;;0.68;;
46054;SDS011;31788;6.954;-71.872;2023-05-10T08:28:46;3.17;;;1.13;;
46054;SDS011;31788;6.954;-71.872;2023-05-10T08:31:12;3.22;;;1.27;;
46054;SDS011;31788;6.954;-71.872;2023-05-10T08:33:39;2.05;;;0.60;;
46054;SDS011;31788;6.954;-71.872;2023-05-10T08:36:06;4.07;;;0.70;;
46054;SDS011;31788;6.954;-71.872;2023-05-10T08:38:32;1.42;;;0.80;;
46054;SDS011;31788;6.954;-71.872;2023-05-10T08:40:59;2.10;;;0.60;;
46054;SDS011;31788;6.954;-71.872;2023-05-10T08:43:28;2.20;;;0.68;;
46054;SDS011;31788;6.954;-71.872;2023-05-10T08:45:55;1.85;;;0.70;;
46054;SDS011;31788;6.954;-71.872;2023-05-10T08:48:23;3.85;;;0.55;;
46054;SDS011;31788;6.954;-71.872;2023-05-10T08:50:52;2.27;;;0.60;;
46054;SDS011;31788;6.954;-71.872;2023-05-10T08:53:23;2.25;;;0.65;;
46054;SDS011;31788;6.954;-71.872;2023-05-10T08:55:53;2.47;;;0.60;;
46054;SDS011;31788;6.954;-71.872;2023-05-10T08:58:20;2.80;;;0.60;;
46054;SDS011;31788;6.954;-71.872;2023-05-10T09:00:48;1.80;;;0.63;;
46054;SDS011;31788;6.954;-71.872;2023-05-10T09:03:18;3.13;;;0.75;;
46054;SDS011;31788;6.954;-71.872;2023-05-10T09:05:45;3.95;;;0.80;;
46054;SDS011;31788;6.954;-71.872;2023-05-10T09:08:12;2.00;;;0.70;;
46054;SDS011;31788;6.954;-71.872;2023-05-10T09:10:42;3.28;;;0.60;;
46054;SDS011;31788;6.954;-71.872;2023-05-10T09:13:12;1.58;;;0.60;;
46054;SDS011;31788;6.954;-71.872;2023-05-10T09:15:40;3.13;;;0.75;;
46054;SDS011;31788;6.954;-71.872;2023-05-10T09:18:09;3.35;;;0.70;;
46054;SDS011;31788;6.954;-71.872;2023-05-10T09:20:35;2.58;;;0.80;;
46054;SDS011;31788;6.954;-71.872;2023-05-10T09:23:02;2.67;;;0.70;;
46054;SDS011;31788;6.954;-71.872;2023-05-10T09:25:29;2.25;;;0.70;;
46054;SDS011;31788;6.954;-71.872;2023-05-10T09:27:55;2.95;;;0.80;;
46054;SDS011;31788;6.954;-71.872;2023-05-10T09:30:26;4.00;;;0.70;;
46054;SDS011;31788;6.954;-71.872;2023-05-10T09:32:54;1.90;;;0.60;;
46054;SDS011;31788;6.954;-71.872;2023-05-10T09:35:23;2.50;;;0.57;;
46054;SDS011;31788;6.954;-71.872;2023-05-10T09:37:54;2.50;;;0.75;;
46054;SDS011;31788;6.954;-71.872;2023-05-10T09:40:23;2.40;;;1.00;;
46054;SDS011;31788;6.954;-71.872;2023-05-10T09:45:23;4.57;;;0.90;;
46054;SDS011;31788;6.954;-71.872;2023-05-10T09:47:52;2.63;;;0.80;;
46054;SDS011;31788;6.954;-71.872;2023-05-10T09:50:19;2.47;;;0.70;;
46054;SDS011;31788;6.954;-71.872;2023-05-10T09:52:59;3.80;;;0.80;;
46054;SDS011;31788;6.954;-71.872;2023-05-10T09:55:41;2.78;;;0.95;;
46054;SDS011;31788;6.954;-71.872;2023-05-10T09:58:14;2.42;;;0.70;;
46054;SDS011;31788;6.954;-71.872;2023-05-10T10:00:42;3.53;;;0.70;;
46054;SDS011;31788;6.954;-71.872;2023-05-10T10:03:13;3.20;;;1.00;;
46054;SDS011;31788;6.954;-71.872;2023-05-10T10:05:46;2.00;;;0.60;;
46054;SDS011;31788;6.954;-71.872;2023-05-10T10:08:13;3.03;;;0.80;;
46054;SDS011;31788;6.954;-71.872;2023-05-10T10:10:41;2.38;;;0.75;;
46054;SDS011;31788;6.954;-71.872;2023-05-10T10:13:10;5.07;;;1.98;;
46054;SDS011;31788;6.954;-71.872;2023-05-10T10:15:36;4.63;;;1.67;;
46054;SDS011;31788;6.954;-71.872;2023-05-10T10:18:03;6.43;;;1.60;;
46054;SDS011;31788;6.954;-71.872;2023-05-10T10:20:32;3.45;;;1.02;;
46054;SDS011;31788;6.954;-71.872;2023-05-10T10:22:58;4.30;;;1.10;;
46054;SDS011;31788;6.954;-71.872;2023-05-10T10:25:25;2.05;;;1.02;;
46054;SDS011;31788;6.954;-71.872;2023-05-10T10:36:05;2.88;;;1.27;;
46054;SDS011;31788;6.954;-71.872;2023-05-10T10:38:35;2.83;;;0.93;;
46054;SDS011;31788;6.954;-71.872;2023-05-10T10:41:10;3.17;;;1.02;;
46054;SDS011;31788;6.954;-71.872;2023-05-10T10:47:04;3.17;;;1.10;;
46054;SDS011;31788;6.954;-71.872;2023-05-10T10:52:31;7.55;;;1.13;;
46054;SDS011;31788;6.954;-71.872;2023-05-10T11:00:30;2.95;;;1.00;;
46054;SDS011;31788;6.954;-71.872;2023-05-10T11:03:11;3.17;;;0.90;;
46054;SDS011;31788;6.954;-71.872;2023-05-10T11:05:46;4.55;;;1.02;;
46054;SDS011;31788;6.954;-71.872;2023-05-10T11:08:15;2.20;;;0.85;;
46054;SDS011;31788;6.954;-71.872;2023-05-10T11:10:52;3.53;;;0.93;;
46054;SDS011;31788;6.954;-71.872;2023-05-10T11:13:28;3.05;;;0.80;;
46054;SDS011;31788;6.954;-71.872;2023-05-10T11:15:56;4.22;;;0.90;;
46054;SDS011;31788;6.954;-71.872;2023-05-10T11:18:25;4.60;;;1.45;;
46054;SDS011;31788;6.954;-71.872;2023-05-10T11:21:02;4.43;;;1.42;;
46054;SDS011;31788;6.954;-71.872;2023-05-10T11:26:07;6.22;;;1.13;;
46054;SDS011;31788;6.954;-71.872;2023-05-10T11:28:47;4.57;;;1.75;;
46054;SDS011;31788;6.954;-71.872;2023-05-10T11:31:15;3.42;;;1.17;;
46054;SDS011;31788;6.954;-71.872;2023-05-10T11:33:46;3.13;;;1.05;;
46054;SDS011;31788;6.954;-71.872;2023-05-10T11:36:14;3.77;;;0.93;;
46054;SDS011;31788;6.954;-71.872;2023-05-10T11:38:42;4.35;;;1.05;;
46054;SDS011;31788;6.954;-71.872;2023-05-10T11:41:10;5.20;;;1.00;;
46054;SDS011;31788;6.954;-71.872;2023-05-10T11:43:40;3.20;;;1.40;;
46054;SDS011;31788;6.954;-71.872;2023-05-10T11:46:11;2.83;;;1.15;;
46054;SDS011;31788;6.954;-71.872;2023-05-10T11:48:39;2.47;;;1.27;;
46054;SDS011;31788;6.954;-71.872;2023-05-10T11:51:10;2.57;;;1.00;;
46054;SDS011;31788;6.954;-71.872;2023-05-10T11:53:37;2.25;;;0.90;;
46054;SDS011;31788;6.954;-71.872;2023-05-10T11:56:04;4.88;;;1.10;;
46054;SDS011;31788;6.954;-71.872;2023-05-10T11:58:35;3.17;;;1.00;;
46054;SDS011;31788;6.954;-71.872;2023-05-10T12:01:03;4.50;;;1.10;;
46054;SDS011;31788;6.954;-71.872;2023-05-10T12:03:32;4.78;;;1.00;;
46054;SDS011;31788;6.954;-71.872;2023-05-10T12:05:59;3.90;;;1.63;;
46054;SDS011;31788;6.954;-71.872;2023-05-10T12:08:28;5.18;;;2.13;;
46054;SDS011;31788;6.954;-71.872;2023-05-10T12:11:06;3.42;;;1.42;;
46054;SDS011;31788;6.954;-71.872;2023-05-10T12:13:38;4.70;;;1.40;;
46054;SDS011;31788;6.954;-71.872;2023-05-10T12:16:25;5.07;;;2.07;;
46054;SDS011;31788;6.954;-71.872;2023-05-10T12:18:57;6.32;;;2.40;;
46054;SDS011;31788;6.954;-71.872;2023-05-10T12:21:27;5.97;;;1.80;;
46054;SDS011;31788;6.954;-71.872;2023-05-10T12:23:59;3.47;;;1.60;;
46054;SDS011;31788;6.954;-71.872;2023-05-10T12:26:30;3.40;;;1.73;;
46054;SDS011;31788;6.954;-71.872;2023-05-10T12:29:17;4.13;;;1.52;;
46054;SDS011;31788;6.954;-71.872;2023-05-10T12:34:23;2.83;;;1.20;;
46054;SDS011;31788;6.954;-71.872;2023-05-10T12:36:54;3.22;;;1.25;;
46054;SDS011;31788;6.954;-71.872;2023-05-10T12:39:21;3.77;;;1.10;;
46054;SDS011;31788;6.954;-71.872;2023-05-10T12:41:48;3.50;;;0.90;;
46054;SDS011;31788;6.954;-71.872;2023-05-10T12:44:15;2.67;;;1.30;;
46054;SDS011;31788;6.954;-71.872;2023-05-10T12:46:42;2.72;;;0.93;;
46054;SDS011;31788;6.954;-71.872;2023-05-10T12:49:09;3.30;;;0.93;;
46054;SDS011;31788;6.954;-71.872;2023-05-10T12:51:35;3.08;;;0.90;;
46054;SDS011;31788;6.954;-71.872;2023-05-10T12:54:02;2.13;;;0.80;;
46054;SDS011;31788;6.954;-71.872;2023-05-10T12:56:29;2.70;;;0.80;;
46054;SDS011;31788;6.954;-71.872;2023-05-10T12:58:55;3.20;;;0.60;;
46054;SDS011;31788;6.954;-71.872;2023-05-10T13:01:22;3.00;;;0.77;;
46054;SDS011;31788;6.954;-71.872;2023-05-10T13:03:49;2.10;;;0.80;;
46054;SDS011;31788;6.954;-71.872;2023-05-10T13:06:15;2.20;;;0.70;;
46054;SDS011;31788;6.954;-71.872;2023-05-10T13:08:42;3.38;;;0.80;;
46054;SDS011;31788;6.954;-71.872;2023-05-10T13:11:08;1.95;;;0.55;;
46054;SDS011;31788;6.954;-71.872;2023-05-10T13:13:35;2.97;;;0.70;;
46054;SDS011;31788;6.954;-71.872;2023-05-10T13:16:02;2.47;;;0.90;;
46054;SDS011;31788;6.954;-71.872;2023-05-10T13:18:29;5.17;;;1.20;;
46054;SDS011;31788;6.954;-71.872;2023-05-10T13:20:55;4.32;;;0.80;;
46054;SDS011;31788;6.954;-71.872;2023-05-10T13:23:22;2.80;;;0.90;;
46054;SDS011;31788;6.954;-71.872;2023-05-10T13:25:49;2.72;;;0.90;;
46054;SDS011;31788;6.954;-71.872;2023-05-10T13:28:15;2.88;;;0.98;;
46054;SDS011;31788;6.954;-71.872;2023-05-10T13:30:42;4.18;;;0.75;;
46054;SDS011;31788;6.954;-71.872;2023-05-10T13:33:09;5.60;;;1.20;;
46054;SDS011;31788;6.954;-71.872;2023-05-10T13:35:35;3.67;;;0.90;;
46054;SDS011;31788;6.954;-71.872;2023-05-10T13:38:02;3.42;;;0.90;;
46054;SDS011;31788;6.954;-71.872;2023-05-10T13:40:29;2.35;;;0.82;;
46054;SDS011;31788;6.954;-71.872;2023-05-10T13:42:56;3.40;;;0.88;;
46054;SDS011;31788;6.954;-71.872;2023-05-10T13:45:22;3.05;;;0.95;;
46054;SDS011;31788;6.954;-71.872;2023-05-10T13:47:49;2.40;;;1.10;;
46054;SDS011;31788;6.954;-71.872;2023-05-10T13:50:18;2.95;;;1.40;;
46054;SDS011;31788;6.954;-71.872;2023-05-10T13:52:45;8.18;;;5.40;;
46054;SDS011;31788;6.954;-71.872;2023-05-10T13:55:12;9.20;;;6.53;;
46054;SDS011;31788;6.954;-71.872;2023-05-10T13:57:39;12.33;;;8.80;;
46054;SDS011;31788;6.954;-71.872;2023-05-10T14:00:06;8.40;;;6.40;;
46054;SDS011;31788;6.954;-71.872;2023-05-10T14:02:34;8.35;;;5.53;;
46054;SDS011;31788;6.954;-71.872;2023-05-10T14:05:01;6.57;;;4.55;;
46054;SDS011;31788;6.954;-71.872;2023-05-10T14:07:28;7.60;;;3.92;;
46054;SDS011;31788;6.954;-71.872;2023-05-10T14:09:55;7.03;;;3.47;;
46054;SDS011;31788;6.954;-71.872;2023-05-10T14:12:21;7.27;;;3.10;;
46054;SDS011;31788;6.954;-71.872;2023-05-10T14:14:48;5.45;;;2.60;;
46054;SDS011;31788;6.954;-71.872;2023-05-10T14:17:14;3.80;;;2.00;;
46054;SDS011;31788;6.954;-71.872;2023-05-10T14:19:41;5.00;;;1.77;;
46054;SDS011;31788;6.954;-71.872;2023-05-10T14:22:08;3.72;;;1.80;;
46054;SDS011;31788;6.954;-71.872;2023-05-10T14:24:35;3.05;;;1.50;;
46054;SDS011;31788;6.954;-71.872;2023-05-10T14:27:03;3.13;;;1.58;;
46054;SDS011;31788;6.954;-71.872;2023-05-10T14:29:31;3.78;;;1.30;;
46054;SDS011;31788;6.954;-71.872;2023-05-10T14:31:58;2.95;;;1.23;;
46054;SDS011;31788;6.954;-71.872;2023-05-10T14:34:24;3.65;;;1.35;;
46054;SDS011;31788;6.954;-71.872;2023-05-10T14:36:51;2.47;;;1.38;;
46054;SDS011;31788;6.954;-71.872;2023-05-10T14:39:17;2.75;;;1.30;;
46054;SDS011;31788;6.954;-71.872;2023-05-10T14:41:44;3.17;;;1.38;;
46054;SDS011;31788;6.954;-71.872;2023-05-10T14:44:12;3.17;;;1.55;;
46054;SDS011;31788;6.954;-71.872;2023-05-10T14:46:40;3.90;;;1.65;;
46054;SDS011;31788;6.954;-71.872;2023-05-10T14:49:07;3.33;;;1.83;;
46054;SDS011;31788;6.954;-71.872;2023-05-10T14:51:35;5.93;;;1.73;;
46054;SDS011;31788;6.954;-71.872;2023-05-10T14:54:02;3.00;;;1.50;;
46054;SDS011;31788;6.954;-71.872;2023-05-10T14:56:28;3.55;;;1.60;;
46054;SDS011;31788;6.954;-71.872;2023-05-10T14:58:55;3.78;;;1.60;;
46054;SDS011;31788;6.954;-71.872;2023-05-10T15:01:22;2.45;;;1.70;;
46054;SDS011;31788;6.954;-71.872;2023-05-10T15:03:48;2.70;;;1.52;;
46054;SDS011;31788;6.954;-71.872;2023-05-10T15:06:15;2.28;;;1.50;;
46054;SDS011;31788;6.954;-71.872;2023-05-10T15:08:42;2.45;;;1.40;;
46054;SDS011;31788;6.954;-71.872;2023-05-10T15:11:09;2.47;;;1.42;;
46054;SDS011;31788;6.954;-71.872;2023-05-10T15:13:35;4.13;;;1.63;;
46054;SDS011;31788;6.954;-71.872;2023-05-10T15:16:02;6.07;;;1.80;;
46054;SDS011;31788;6.954;-71.872;2023-05-10T15:18:29;4.83;;;1.70;;
46054;SDS011;31788;6.954;-71.872;2023-05-10T15:20:55;5.13;;;1.83;;
46054;SDS011;31788;6.954;-71.872;2023-05-10T15:23:23;3.38;;;1.48;;